sensor_id;sensor_type;location;lat;lon;timestamp;P1;durP1;ratioP1;P2;durP2;ratioP2
53871;SDS011;39787;53.174;5.798;2023-08-20T00:00:46;15.13;;;2.78;;
53871;SDS011;39787;53.174;5.798;2023-08-20T00:01:47;9.75;;;2.70;;
53871;SDS011;39787;53.174;5.798;2023-08-20T00:03:03;14.77;;;3.75;;
53871;SDS011;39787;53.174;5.798;2023-08-20T00:04:08;13.43;;;2.40;;
53871;SDS011;39787;53.174;5.798;2023-08-20T00:05:09;17.60;;;3.53;;
53871;SDS011;39787;53.174;5.798;2023-08-20T00:06:10;18.67;;;3.13;;
53871;SDS011;39787;53.174;5.798;2023-08-20T00:07:11;18.77;;;2.90;;
53871;SDS011;39787;53.174;5.798;2023-08-20T00:08:11;20.27;;;3.00;;
53871;SDS011;39787;53.174;5.798;2023-08-20T00:09:12;10.70;;;2.73;;
53871;SDS011;39787;53.174;5.798;2023-08-20T00:10:12;17.00;;;2.63;;
53871;SDS011;39787;53.174;5.798;2023-08-20T00:11:13;12.50;;;3.27;;
53871;SDS011;39787;53.174;5.798;2023-08-20T00:12:13;13.68;;;3.08;;
53871;SDS011;39787;53.174;5.798;2023-08-20T00:13:14;10.93;;;2.87;;
53871;SDS011;39787;53.174;5.798;2023-08-20T00:14:15;12.93;;;2.67;;
53871;SDS011;39787;53.174;5.798;2023-08-20T00:15:16;10.50;;;3.17;;
53871;SDS011;39787;53.174;5.798;2023-08-20T00:16:17;9.23;;;2.50;;
53871;SDS011;39787;53.174;5.798;2023-08-20T00:17:18;9.93;;;3.00;;
53871;SDS011;39787;53.174;5.798;2023-08-20T00:18:18;10.90;;;2.80;;
53871;SDS011;39787;53.174;5.798;2023-08-20T00:19:19;12.83;;;2.23;;
53871;SDS011;39787;53.174;5.798;2023-08-20T00:20:20;20.50;;;3.20;;
53871;SDS011;39787;53.174;5.798;2023-08-20T00:21:21;10.43;;;2.55;;
53871;SDS011;39787;53.174;5.798;2023-08-20T00:22:23;11.25;;;2.63;;
53871;SDS011;39787;53.174;5.798;2023-08-20T00:23:25;10.60;;;2.55;;
53871;SDS011;39787;53.174;5.798;2023-08-20T00:24:26;13.00;;;2.65;;
53871;SDS011;39787;53.174;5.798;2023-08-20T00:25:27;12.52;;;3.42;;
53871;SDS011;39787;53.174;5.798;2023-08-20T00:26:28;6.72;;;2.85;;
53871;SDS011;39787;53.174;5.798;2023-08-20T00:27:28;14.10;;;3.30;;
53871;SDS011;39787;53.174;5.798;2023-08-20T00:28:29;11.80;;;2.40;;
53871;SDS011;39787;53.174;5.798;2023-08-20T00:29:29;9.10;;;2.57;;
53871;SDS011;39787;53.174;5.798;2023-08-20T00:30:30;11.07;;;2.80;;
53871;SDS011;39787;53.174;5.798;2023-08-20T00:31:30;13.37;;;3.27;;
53871;SDS011;39787;53.174;5.798;2023-08-20T00:32:31;15.90;;;3.37;;
53871;SDS011;39787;53.174;5.798;2023-08-20T00:33:31;10.43;;;2.50;;
53871;SDS011;39787;53.174;5.798;2023-08-20T00:34:32;7.43;;;2.60;;
53871;SDS011;39787;53.174;5.798;2023-08-20T00:35:32;8.43;;;2.17;;
53871;SDS011;39787;53.174;5.798;2023-08-20T00:36:33;12.30;;;2.93;;
53871;SDS011;39787;53.174;5.798;2023-08-20T00:37:33;8.23;;;2.40;;
53871;SDS011;39787;53.174;5.798;2023-08-20T00:38:34;9.97;;;2.87;;
53871;SDS011;39787;53.174;5.798;2023-08-20T00:39:34;8.80;;;2.90;;
53871;SDS011;39787;53.174;5.798;2023-08-20T00:40:35;13.77;;;2.87;;
53871;SDS011;39787;53.174;5.798;2023-08-20T00:41:35;9.30;;;2.90;;
53871;SDS011;39787;53.174;5.798;2023-08-20T00:42:36;10.23;;;2.87;;
53871;SDS011;39787;53.174;5.798;2023-08-20T00:43:37;11.50;;;2.63;;
53871;SDS011;39787;53.174;5.798;2023-08-20T00:44:37;12.00;;;3.03;;
53871;SDS011;39787;53.174;5.798;2023-08-20T00:45:38;8.80;;;2.60;;
53871;SDS011;39787;53.174;5.798;2023-08-20T00:46:40;17.63;;;3.53;;
53871;SDS011;39787;53.174;5.798;2023-08-20T00:47:41;11.13;;;3.97;;
53871;SDS011;39787;53.174;5.798;2023-08-20T00:48:42;17.35;;;3.38;;
53871;SDS011;39787;53.174;5.798;2023-08-20T00:49:42;20.53;;;4.63;;
53871;SDS011;39787;53.174;5.798;2023-08-20T00:50:43;10.23;;;3.30;;
53871;SDS011;39787;53.174;5.798;2023-08-20T00:51:44;8.73;;;2.90;;
53871;SDS011;39787;53.174;5.798;2023-08-20T00:52:45;9.07;;;2.72;;
53871;SDS011;39787;53.174;5.798;2023-08-20T00:53:46;11.90;;;3.65;;
53871;SDS011;39787;53.174;5.798;2023-08-20T00:54:47;9.20;;;3.27;;
53871;SDS011;39787;53.174;5.798;2023-08-20T00:55:48;12.00;;;3.38;;
53871;SDS011;39787;53.174;5.798;2023-08-20T00:56:49;10.87;;;3.10;;
53871;SDS011;39787;53.174;5.798;2023-08-20T00:57:50;12.48;;;3.20;;
53871;SDS011;39787;53.174;5.798;2023-08-20T00:58:50;8.93;;;2.90;;
53871;SDS011;39787;53.174;5.798;2023-08-20T00:59:52;13.02;;;3.10;;
53871;SDS011;39787;53.174;5.798;2023-08-20T01:00:55;7.75;;;2.67;;
53871;SDS011;39787;53.174;5.798;2023-08-20T01:01:56;15.33;;;3.63;;
53871;SDS011;39787;53.174;5.798;2023-08-20T01:02:56;7.57;;;2.97;;
53871;SDS011;39787;53.174;5.798;2023-08-20T01:03:57;13.13;;;3.23;;
53871;SDS011;39787;53.174;5.798;2023-08-20T01:04:57;11.70;;;2.83;;
53871;SDS011;39787;53.174;5.798;2023-08-20T01:06:05;13.90;;;3.27;;
53871;SDS011;39787;53.174;5.798;2023-08-20T01:08:31;9.85;;;3.05;;
53871;SDS011;39787;53.174;5.798;2023-08-20T01:10:53;11.40;;;3.65;;
53871;SDS011;39787;53.174;5.798;2023-08-20T01:12:03;11.77;;;3.08;;
53871;SDS011;39787;53.174;5.798;2023-08-20T01:13:06;15.73;;;3.10;;
53871;SDS011;39787;53.174;5.798;2023-08-20T01:14:14;6.55;;;2.67;;
53871;SDS011;39787;53.174;5.798;2023-08-20T01:15:15;8.05;;;2.97;;
53871;SDS011;39787;53.174;5.798;2023-08-20T01:16:15;7.47;;;3.03;;
53871;SDS011;39787;53.174;5.798;2023-08-20T01:17:16;7.60;;;3.27;;
53871;SDS011;39787;53.174;5.798;2023-08-20T01:18:16;10.90;;;2.70;;
53871;SDS011;39787;53.174;5.798;2023-08-20T01:19:17;10.00;;;2.77;;
53871;SDS011;39787;53.174;5.798;2023-08-20T01:20:19;9.32;;;2.70;;
53871;SDS011;39787;53.174;5.798;2023-08-20T01:21:30;8.65;;;3.47;;
53871;SDS011;39787;53.174;5.798;2023-08-20T01:24:10;10.10;;;3.10;;
53871;SDS011;39787;53.174;5.798;2023-08-20T01:25:24;11.75;;;3.35;;
53871;SDS011;39787;53.174;5.798;2023-08-20T01:29:08;16.65;;;3.72;;
53871;SDS011;39787;53.174;5.798;2023-08-20T01:30:09;8.65;;;3.28;;
53871;SDS011;39787;53.174;5.798;2023-08-20T01:31:10;14.90;;;3.80;;
53871;SDS011;39787;53.174;5.798;2023-08-20T01:32:12;16.25;;;4.10;;
53871;SDS011;39787;53.174;5.798;2023-08-20T01:33:13;17.45;;;4.00;;
53871;SDS011;39787;53.174;5.798;2023-08-20T01:34:14;12.52;;;4.00;;
53871;SDS011;39787;53.174;5.798;2023-08-20T01:35:15;10.17;;;4.23;;
53871;SDS011;39787;53.174;5.798;2023-08-20T01:36:16;15.30;;;4.72;;
53871;SDS011;39787;53.174;5.798;2023-08-20T01:37:17;17.63;;;4.80;;
53871;SDS011;39787;53.174;5.798;2023-08-20T01:38:17;15.17;;;5.00;;
53871;SDS011;39787;53.174;5.798;2023-08-20T01:39:18;12.43;;;5.37;;
53871;SDS011;39787;53.174;5.798;2023-08-20T01:40:18;7.90;;;3.73;;
53871;SDS011;39787;53.174;5.798;2023-08-20T01:41:19;18.00;;;4.67;;
53871;SDS011;39787;53.174;5.798;2023-08-20T01:42:20;10.17;;;4.37;;
53871;SDS011;39787;53.174;5.798;2023-08-20T01:43:20;18.50;;;4.87;;
53871;SDS011;39787;53.174;5.798;2023-08-20T01:44:21;23.17;;;4.60;;
53871;SDS011;39787;53.174;5.798;2023-08-20T01:45:21;16.10;;;4.57;;
53871;SDS011;39787;53.174;5.798;2023-08-20T01:46:21;14.63;;;4.30;;
53871;SDS011;39787;53.174;5.798;2023-08-20T01:47:22;16.60;;;3.93;;
53871;SDS011;39787;53.174;5.798;2023-08-20T01:48:22;15.73;;;4.50;;
53871;SDS011;39787;53.174;5.798;2023-08-20T01:49:23;21.20;;;4.20;;
53871;SDS011;39787;53.174;5.798;2023-08-20T01:50:23;15.20;;;3.80;;
53871;SDS011;39787;53.174;5.798;2023-08-20T01:51:24;11.87;;;4.03;;
53871;SDS011;39787;53.174;5.798;2023-08-20T01:52:24;12.53;;;4.10;;
53871;SDS011;39787;53.174;5.798;2023-08-20T01:53:25;14.40;;;3.90;;
53871;SDS011;39787;53.174;5.798;2023-08-20T01:54:25;12.30;;;3.97;;
53871;SDS011;39787;53.174;5.798;2023-08-20T01:55:26;11.77;;;4.03;;
53871;SDS011;39787;53.174;5.798;2023-08-20T01:56:26;10.60;;;3.67;;
53871;SDS011;39787;53.174;5.798;2023-08-20T01:57:27;12.50;;;3.83;;
53871;SDS011;39787;53.174;5.798;2023-08-20T01:58:27;12.03;;;3.13;;
53871;SDS011;39787;53.174;5.798;2023-08-20T01:59:28;12.03;;;3.80;;
53871;SDS011;39787;53.174;5.798;2023-08-20T02:00:28;10.60;;;3.50;;
53871;SDS011;39787;53.174;5.798;2023-08-20T02:01:29;15.93;;;3.70;;
53871;SDS011;39787;53.174;5.798;2023-08-20T02:02:29;7.57;;;2.60;;
53871;SDS011;39787;53.174;5.798;2023-08-20T02:03:30;7.83;;;3.57;;
53871;SDS011;39787;53.174;5.798;2023-08-20T02:04:30;13.30;;;3.93;;
53871;SDS011;39787;53.174;5.798;2023-08-20T02:05:31;17.13;;;3.70;;
53871;SDS011;39787;53.174;5.798;2023-08-20T02:06:31;9.17;;;3.23;;
53871;SDS011;39787;53.174;5.798;2023-08-20T02:07:32;10.60;;;3.87;;
53871;SDS011;39787;53.174;5.798;2023-08-20T02:08:32;12.23;;;3.60;;
53871;SDS011;39787;53.174;5.798;2023-08-20T02:09:33;7.23;;;3.13;;
53871;SDS011;39787;53.174;5.798;2023-08-20T02:10:33;11.27;;;3.77;;
53871;SDS011;39787;53.174;5.798;2023-08-20T02:11:34;7.07;;;3.73;;
53871;SDS011;39787;53.174;5.798;2023-08-20T02:12:34;8.37;;;3.43;;
53871;SDS011;39787;53.174;5.798;2023-08-20T02:13:35;20.50;;;3.93;;
53871;SDS011;39787;53.174;5.798;2023-08-20T02:14:35;9.67;;;4.37;;
53871;SDS011;39787;53.174;5.798;2023-08-20T02:15:36;12.67;;;3.97;;
53871;SDS011;39787;53.174;5.798;2023-08-20T02:16:36;7.30;;;3.40;;
53871;SDS011;39787;53.174;5.798;2023-08-20T02:17:37;13.93;;;3.70;;
53871;SDS011;39787;53.174;5.798;2023-08-20T02:18:37;8.53;;;3.40;;
53871;SDS011;39787;53.174;5.798;2023-08-20T02:19:38;8.17;;;4.10;;
53871;SDS011;39787;53.174;5.798;2023-08-20T02:20:38;15.85;;;4.35;;
53871;SDS011;39787;53.174;5.798;2023-08-20T02:21:42;11.65;;;3.83;;
53871;SDS011;39787;53.174;5.798;2023-08-20T02:22:43;20.93;;;4.40;;
53871;SDS011;39787;53.174;5.798;2023-08-20T02:23:43;11.33;;;4.07;;
53871;SDS011;39787;53.174;5.798;2023-08-20T02:24:44;14.00;;;4.27;;
53871;SDS011;39787;53.174;5.798;2023-08-20T02:25:44;11.30;;;3.80;;
53871;SDS011;39787;53.174;5.798;2023-08-20T02:26:46;14.50;;;4.07;;
53871;SDS011;39787;53.174;5.798;2023-08-20T02:27:47;13.97;;;4.60;;
53871;SDS011;39787;53.174;5.798;2023-08-20T02:28:47;10.63;;;4.50;;
53871;SDS011;39787;53.174;5.798;2023-08-20T02:29:48;15.27;;;5.37;;
53871;SDS011;39787;53.174;5.798;2023-08-20T02:30:48;13.15;;;4.25;;
53871;SDS011;39787;53.174;5.798;2023-08-20T02:31:49;14.37;;;5.17;;
53871;SDS011;39787;53.174;5.798;2023-08-20T02:32:49;16.10;;;6.23;;
53871;SDS011;39787;53.174;5.798;2023-08-20T02:33:50;17.73;;;5.70;;
53871;SDS011;39787;53.174;5.798;2023-08-20T02:34:51;12.23;;;5.33;;
53871;SDS011;39787;53.174;5.798;2023-08-20T02:35:51;15.45;;;6.55;;
53871;SDS011;39787;53.174;5.798;2023-08-20T02:36:52;14.97;;;5.53;;
53871;SDS011;39787;53.174;5.798;2023-08-20T02:37:52;14.73;;;5.53;;
53871;SDS011;39787;53.174;5.798;2023-08-20T02:38:53;10.33;;;5.07;;
53871;SDS011;39787;53.174;5.798;2023-08-20T02:39:53;15.20;;;5.83;;
53871;SDS011;39787;53.174;5.798;2023-08-20T02:40:54;19.73;;;5.83;;
53871;SDS011;39787;53.174;5.798;2023-08-20T02:41:54;19.63;;;6.67;;
53871;SDS011;39787;53.174;5.798;2023-08-20T02:42:55;14.73;;;5.23;;
53871;SDS011;39787;53.174;5.798;2023-08-20T02:43:55;10.87;;;4.53;;
53871;SDS011;39787;53.174;5.798;2023-08-20T02:44:56;17.73;;;4.57;;
53871;SDS011;39787;53.174;5.798;2023-08-20T02:45:56;14.40;;;5.00;;
53871;SDS011;39787;53.174;5.798;2023-08-20T02:46:57;11.47;;;4.77;;
53871;SDS011;39787;53.174;5.798;2023-08-20T02:47:57;11.33;;;4.67;;
53871;SDS011;39787;53.174;5.798;2023-08-20T02:48:58;11.20;;;4.43;;
53871;SDS011;39787;53.174;5.798;2023-08-20T02:49:58;7.77;;;4.37;;
53871;SDS011;39787;53.174;5.798;2023-08-20T02:50:59;9.30;;;4.23;;
53871;SDS011;39787;53.174;5.798;2023-08-20T02:51:59;13.03;;;4.90;;
53871;SDS011;39787;53.174;5.798;2023-08-20T02:53:00;11.13;;;4.10;;
53871;SDS011;39787;53.174;5.798;2023-08-20T02:54:00;15.00;;;4.47;;
53871;SDS011;39787;53.174;5.798;2023-08-20T02:55:01;16.33;;;4.70;;
53871;SDS011;39787;53.174;5.798;2023-08-20T02:56:01;10.03;;;4.17;;
53871;SDS011;39787;53.174;5.798;2023-08-20T02:57:02;9.67;;;3.93;;
53871;SDS011;39787;53.174;5.798;2023-08-20T02:58:02;13.17;;;4.70;;
53871;SDS011;39787;53.174;5.798;2023-08-20T02:59:03;8.25;;;4.10;;
53871;SDS011;39787;53.174;5.798;2023-08-20T03:00:04;13.97;;;4.40;;
53871;SDS011;39787;53.174;5.798;2023-08-20T03:01:05;12.43;;;4.45;;
53871;SDS011;39787;53.174;5.798;2023-08-20T03:02:05;10.80;;;4.50;;
53871;SDS011;39787;53.174;5.798;2023-08-20T03:03:06;8.87;;;4.37;;
53871;SDS011;39787;53.174;5.798;2023-08-20T03:04:06;17.23;;;5.00;;
53871;SDS011;39787;53.174;5.798;2023-08-20T03:05:07;12.27;;;5.50;;
53871;SDS011;39787;53.174;5.798;2023-08-20T03:06:09;7.72;;;4.18;;
53871;SDS011;39787;53.174;5.798;2023-08-20T03:07:10;12.43;;;5.20;;
53871;SDS011;39787;53.174;5.798;2023-08-20T03:08:10;14.83;;;4.93;;
53871;SDS011;39787;53.174;5.798;2023-08-20T03:09:11;9.50;;;4.43;;
53871;SDS011;39787;53.174;5.798;2023-08-20T03:10:11;15.27;;;4.70;;
53871;SDS011;39787;53.174;5.798;2023-08-20T03:11:12;11.37;;;4.60;;
53871;SDS011;39787;53.174;5.798;2023-08-20T03:12:12;13.10;;;4.80;;
53871;SDS011;39787;53.174;5.798;2023-08-20T03:13:13;11.47;;;4.27;;
53871;SDS011;39787;53.174;5.798;2023-08-20T03:14:13;13.93;;;4.73;;
53871;SDS011;39787;53.174;5.798;2023-08-20T03:15:14;14.20;;;5.07;;
53871;SDS011;39787;53.174;5.798;2023-08-20T03:16:14;10.93;;;4.77;;
53871;SDS011;39787;53.174;5.798;2023-08-20T03:17:15;14.10;;;4.90;;
53871;SDS011;39787;53.174;5.798;2023-08-20T03:18:15;14.67;;;4.67;;
53871;SDS011;39787;53.174;5.798;2023-08-20T03:19:16;10.60;;;4.87;;
53871;SDS011;39787;53.174;5.798;2023-08-20T03:20:16;11.43;;;5.10;;
53871;SDS011;39787;53.174;5.798;2023-08-20T03:21:17;8.90;;;4.47;;
53871;SDS011;39787;53.174;5.798;2023-08-20T03:22:17;10.93;;;4.73;;
53871;SDS011;39787;53.174;5.798;2023-08-20T03:23:18;9.57;;;5.70;;
53871;SDS011;39787;53.174;5.798;2023-08-20T03:24:18;12.93;;;5.07;;
53871;SDS011;39787;53.174;5.798;2023-08-20T03:25:19;10.83;;;5.20;;
53871;SDS011;39787;53.174;5.798;2023-08-20T03:26:19;10.43;;;4.63;;
53871;SDS011;39787;53.174;5.798;2023-08-20T03:27:20;15.13;;;5.40;;
53871;SDS011;39787;53.174;5.798;2023-08-20T03:28:21;14.27;;;5.40;;
53871;SDS011;39787;53.174;5.798;2023-08-20T03:29:21;6.30;;;4.35;;
53871;SDS011;39787;53.174;5.798;2023-08-20T03:30:22;19.03;;;6.90;;
53871;SDS011;39787;53.174;5.798;2023-08-20T03:31:22;15.90;;;6.13;;
53871;SDS011;39787;53.174;5.798;2023-08-20T03:32:23;21.00;;;6.50;;
53871;SDS011;39787;53.174;5.798;2023-08-20T03:33:23;15.47;;;6.70;;
53871;SDS011;39787;53.174;5.798;2023-08-20T03:34:24;19.50;;;8.13;;
53871;SDS011;39787;53.174;5.798;2023-08-20T03:35:24;18.07;;;7.10;;
53871;SDS011;39787;53.174;5.798;2023-08-20T03:36:25;18.60;;;7.20;;
53871;SDS011;39787;53.174;5.798;2023-08-20T03:37:25;17.67;;;6.70;;
53871;SDS011;39787;53.174;5.798;2023-08-20T03:38:26;17.80;;;7.03;;
53871;SDS011;39787;53.174;5.798;2023-08-20T03:39:26;16.03;;;6.43;;
53871;SDS011;39787;53.174;5.798;2023-08-20T03:40:27;14.87;;;6.37;;
53871;SDS011;39787;53.174;5.798;2023-08-20T03:41:28;15.95;;;6.95;;
53871;SDS011;39787;53.174;5.798;2023-08-20T03:42:28;15.93;;;6.63;;
53871;SDS011;39787;53.174;5.798;2023-08-20T03:43:29;20.13;;;6.80;;
53871;SDS011;39787;53.174;5.798;2023-08-20T03:44:30;15.77;;;6.03;;
53871;SDS011;39787;53.174;5.798;2023-08-20T03:45:31;19.17;;;6.25;;
53871;SDS011;39787;53.174;5.798;2023-08-20T03:46:31;11.80;;;6.27;;
53871;SDS011;39787;53.174;5.798;2023-08-20T03:47:32;19.67;;;6.83;;
53871;SDS011;39787;53.174;5.798;2023-08-20T03:48:32;15.57;;;5.90;;
53871;SDS011;39787;53.174;5.798;2023-08-20T03:49:33;17.23;;;5.93;;
53871;SDS011;39787;53.174;5.798;2023-08-20T03:50:33;18.50;;;6.27;;
53871;SDS011;39787;53.174;5.798;2023-08-20T03:51:34;18.07;;;6.83;;
53871;SDS011;39787;53.174;5.798;2023-08-20T03:52:34;12.33;;;5.63;;
53871;SDS011;39787;53.174;5.798;2023-08-20T03:53:35;15.97;;;5.90;;
53871;SDS011;39787;53.174;5.798;2023-08-20T03:54:35;22.00;;;6.73;;
53871;SDS011;39787;53.174;5.798;2023-08-20T03:55:36;24.60;;;6.83;;
53871;SDS011;39787;53.174;5.798;2023-08-20T03:56:36;21.83;;;6.67;;
53871;SDS011;39787;53.174;5.798;2023-08-20T03:57:37;22.17;;;6.63;;
53871;SDS011;39787;53.174;5.798;2023-08-20T03:58:37;19.47;;;6.33;;
53871;SDS011;39787;53.174;5.798;2023-08-20T04:00:39;14.82;;;6.43;;
53871;SDS011;39787;53.174;5.798;2023-08-20T04:01:40;22.97;;;6.43;;
53871;SDS011;39787;53.174;5.798;2023-08-20T04:02:40;16.97;;;6.57;;
53871;SDS011;39787;53.174;5.798;2023-08-20T04:03:41;20.87;;;6.87;;
53871;SDS011;39787;53.174;5.798;2023-08-20T04:04:41;16.33;;;6.33;;
53871;SDS011;39787;53.174;5.798;2023-08-20T04:05:41;14.07;;;6.93;;
53871;SDS011;39787;53.174;5.798;2023-08-20T04:06:42;17.40;;;7.20;;
53871;SDS011;39787;53.174;5.798;2023-08-20T04:07:42;19.23;;;7.33;;
53871;SDS011;39787;53.174;5.798;2023-08-20T04:08:43;22.70;;;7.13;;
53871;SDS011;39787;53.174;5.798;2023-08-20T04:09:43;19.60;;;6.40;;
53871;SDS011;39787;53.174;5.798;2023-08-20T04:10:44;18.30;;;7.43;;
53871;SDS011;39787;53.174;5.798;2023-08-20T04:11:44;17.77;;;6.13;;
53871;SDS011;39787;53.174;5.798;2023-08-20T04:12:45;27.57;;;6.47;;
53871;SDS011;39787;53.174;5.798;2023-08-20T04:13:45;19.57;;;6.53;;
53871;SDS011;39787;53.174;5.798;2023-08-20T04:14:46;17.17;;;6.17;;
53871;SDS011;39787;53.174;5.798;2023-08-20T04:15:46;15.03;;;5.93;;
53871;SDS011;39787;53.174;5.798;2023-08-20T04:16:47;23.73;;;6.33;;
53871;SDS011;39787;53.174;5.798;2023-08-20T04:17:47;26.23;;;6.30;;
53871;SDS011;39787;53.174;5.798;2023-08-20T04:18:48;21.23;;;6.70;;
53871;SDS011;39787;53.174;5.798;2023-08-20T04:19:48;18.73;;;6.80;;
53871;SDS011;39787;53.174;5.798;2023-08-20T04:20:52;16.80;;;6.20;;
53871;SDS011;39787;53.174;5.798;2023-08-20T04:21:53;19.98;;;6.22;;
53871;SDS011;39787;53.174;5.798;2023-08-20T04:22:53;20.43;;;6.47;;
53871;SDS011;39787;53.174;5.798;2023-08-20T04:23:54;23.03;;;6.43;;
53871;SDS011;39787;53.174;5.798;2023-08-20T04:24:54;16.53;;;6.10;;
53871;SDS011;39787;53.174;5.798;2023-08-20T04:25:55;15.93;;;5.87;;
53871;SDS011;39787;53.174;5.798;2023-08-20T04:26:55;18.93;;;6.00;;
53871;SDS011;39787;53.174;5.798;2023-08-20T04:27:56;17.20;;;5.43;;
53871;SDS011;39787;53.174;5.798;2023-08-20T04:28:56;16.20;;;6.27;;
53871;SDS011;39787;53.174;5.798;2023-08-20T04:29:57;16.73;;;5.67;;
53871;SDS011;39787;53.174;5.798;2023-08-20T04:30:57;19.53;;;6.20;;
53871;SDS011;39787;53.174;5.798;2023-08-20T04:31:57;19.83;;;6.03;;
53871;SDS011;39787;53.174;5.798;2023-08-20T04:32:58;23.83;;;6.00;;
53871;SDS011;39787;53.174;5.798;2023-08-20T04:33:58;20.43;;;6.07;;
53871;SDS011;39787;53.174;5.798;2023-08-20T04:34:59;25.83;;;6.13;;
53871;SDS011;39787;53.174;5.798;2023-08-20T04:35:59;16.60;;;5.53;;
53871;SDS011;39787;53.174;5.798;2023-08-20T04:37:00;14.67;;;5.03;;
53871;SDS011;39787;53.174;5.798;2023-08-20T04:38:01;17.03;;;5.67;;
53871;SDS011;39787;53.174;5.798;2023-08-20T04:39:01;30.20;;;6.15;;
53871;SDS011;39787;53.174;5.798;2023-08-20T04:40:02;25.87;;;5.80;;
53871;SDS011;39787;53.174;5.798;2023-08-20T04:41:03;19.65;;;4.75;;
53871;SDS011;39787;53.174;5.798;2023-08-20T04:42:04;25.50;;;6.67;;
53871;SDS011;39787;53.174;5.798;2023-08-20T04:43:04;19.90;;;5.67;;
53871;SDS011;39787;53.174;5.798;2023-08-20T04:44:05;22.33;;;6.40;;
53871;SDS011;39787;53.174;5.798;2023-08-20T04:45:05;22.40;;;6.30;;
53871;SDS011;39787;53.174;5.798;2023-08-20T04:46:06;24.08;;;6.10;;
53871;SDS011;39787;53.174;5.798;2023-08-20T04:47:10;25.03;;;5.47;;
53871;SDS011;39787;53.174;5.798;2023-08-20T04:48:11;25.67;;;5.60;;
53871;SDS011;39787;53.174;5.798;2023-08-20T04:49:12;22.70;;;6.33;;
53871;SDS011;39787;53.174;5.798;2023-08-20T04:50:12;16.13;;;5.50;;
53871;SDS011;39787;53.174;5.798;2023-08-20T04:51:13;21.13;;;5.67;;
53871;SDS011;39787;53.174;5.798;2023-08-20T04:52:13;18.47;;;6.30;;
53871;SDS011;39787;53.174;5.798;2023-08-20T04:53:14;17.60;;;5.80;;
53871;SDS011;39787;53.174;5.798;2023-08-20T04:54:14;26.03;;;6.37;;
53871;SDS011;39787;53.174;5.798;2023-08-20T04:55:15;21.47;;;5.60;;
53871;SDS011;39787;53.174;5.798;2023-08-20T04:56:15;21.73;;;5.67;;
53871;SDS011;39787;53.174;5.798;2023-08-20T04:57:16;19.17;;;5.27;;
53871;SDS011;39787;53.174;5.798;2023-08-20T04:58:16;15.80;;;5.83;;
53871;SDS011;39787;53.174;5.798;2023-08-20T04:59:17;21.73;;;5.60;;
53871;SDS011;39787;53.174;5.798;2023-08-20T05:00:17;21.93;;;5.93;;
53871;SDS011;39787;53.174;5.798;2023-08-20T05:01:17;21.83;;;5.63;;
53871;SDS011;39787;53.174;5.798;2023-08-20T05:02:18;19.90;;;5.67;;
53871;SDS011;39787;53.174;5.798;2023-08-20T05:03:18;20.83;;;5.37;;
53871;SDS011;39787;53.174;5.798;2023-08-20T05:04:19;23.80;;;6.27;;
53871;SDS011;39787;53.174;5.798;2023-08-20T05:05:20;19.98;;;5.53;;
53871;SDS011;39787;53.174;5.798;2023-08-20T05:06:20;19.00;;;5.80;;
53871;SDS011;39787;53.174;5.798;2023-08-20T05:07:21;26.00;;;5.97;;
53871;SDS011;39787;53.174;5.798;2023-08-20T05:08:21;20.17;;;6.13;;
53871;SDS011;39787;53.174;5.798;2023-08-20T05:09:22;30.07;;;6.20;;
53871;SDS011;39787;53.174;5.798;2023-08-20T05:10:22;19.63;;;5.70;;
53871;SDS011;39787;53.174;5.798;2023-08-20T05:11:23;25.37;;;6.13;;
53871;SDS011;39787;53.174;5.798;2023-08-20T05:12:23;17.07;;;5.40;;
53871;SDS011;39787;53.174;5.798;2023-08-20T05:13:24;15.70;;;5.23;;
53871;SDS011;39787;53.174;5.798;2023-08-20T05:14:24;21.23;;;5.53;;
53871;SDS011;39787;53.174;5.798;2023-08-20T05:15:25;21.47;;;5.60;;
53871;SDS011;39787;53.174;5.798;2023-08-20T05:16:25;12.77;;;4.93;;
53871;SDS011;39787;53.174;5.798;2023-08-20T05:17:26;19.27;;;5.80;;
53871;SDS011;39787;53.174;5.798;2023-08-20T05:18:26;17.47;;;5.13;;
53871;SDS011;39787;53.174;5.798;2023-08-20T05:19:27;17.00;;;6.13;;
53871;SDS011;39787;53.174;5.798;2023-08-20T05:20:27;16.93;;;5.77;;
53871;SDS011;39787;53.174;5.798;2023-08-20T05:21:28;24.17;;;5.77;;
53871;SDS011;39787;53.174;5.798;2023-08-20T05:22:28;19.00;;;4.97;;
53871;SDS011;39787;53.174;5.798;2023-08-20T05:23:29;15.27;;;5.13;;
53871;SDS011;39787;53.174;5.798;2023-08-20T05:24:29;19.53;;;5.47;;
53871;SDS011;39787;53.174;5.798;2023-08-20T05:25:30;22.37;;;5.83;;
53871;SDS011;39787;53.174;5.798;2023-08-20T05:26:30;22.40;;;5.80;;
53871;SDS011;39787;53.174;5.798;2023-08-20T05:27:30;17.07;;;5.53;;
53871;SDS011;39787;53.174;5.798;2023-08-20T05:28:31;16.53;;;5.17;;
53871;SDS011;39787;53.174;5.798;2023-08-20T05:29:31;20.13;;;4.93;;
53871;SDS011;39787;53.174;5.798;2023-08-20T05:30:33;13.67;;;5.20;;
53871;SDS011;39787;53.174;5.798;2023-08-20T05:32:34;22.88;;;5.00;;
53871;SDS011;39787;53.174;5.798;2023-08-20T05:33:34;18.27;;;4.83;;
53871;SDS011;39787;53.174;5.798;2023-08-20T05:34:35;26.60;;;5.47;;
53871;SDS011;39787;53.174;5.798;2023-08-20T05:35:36;16.13;;;4.60;;
53871;SDS011;39787;53.174;5.798;2023-08-20T05:36:36;21.07;;;5.30;;
53871;SDS011;39787;53.174;5.798;2023-08-20T05:37:36;16.37;;;4.33;;
53871;SDS011;39787;53.174;5.798;2023-08-20T05:38:37;17.53;;;5.63;;
53871;SDS011;39787;53.174;5.798;2023-08-20T05:39:40;17.83;;;4.30;;
53871;SDS011;39787;53.174;5.798;2023-08-20T05:40:41;17.45;;;4.75;;
53871;SDS011;39787;53.174;5.798;2023-08-20T05:41:42;16.57;;;4.80;;
53871;SDS011;39787;53.174;5.798;2023-08-20T05:42:42;19.07;;;4.33;;
53871;SDS011;39787;53.174;5.798;2023-08-20T05:43:43;22.43;;;4.33;;
53871;SDS011;39787;53.174;5.798;2023-08-20T05:44:43;14.77;;;4.87;;
53871;SDS011;39787;53.174;5.798;2023-08-20T05:45:44;17.80;;;4.60;;
53871;SDS011;39787;53.174;5.798;2023-08-20T05:46:44;18.50;;;4.33;;
53871;SDS011;39787;53.174;5.798;2023-08-20T05:47:45;18.53;;;4.33;;
53871;SDS011;39787;53.174;5.798;2023-08-20T05:48:45;15.97;;;4.13;;
53871;SDS011;39787;53.174;5.798;2023-08-20T05:49:46;20.80;;;4.23;;
53871;SDS011;39787;53.174;5.798;2023-08-20T05:50:46;21.83;;;4.67;;
53871;SDS011;39787;53.174;5.798;2023-08-20T05:51:47;23.00;;;4.03;;
53871;SDS011;39787;53.174;5.798;2023-08-20T05:52:47;21.67;;;4.47;;
53871;SDS011;39787;53.174;5.798;2023-08-20T05:53:48;18.85;;;4.75;;
53871;SDS011;39787;53.174;5.798;2023-08-20T05:54:49;17.73;;;4.77;;
53871;SDS011;39787;53.174;5.798;2023-08-20T05:55:49;15.53;;;3.70;;
53871;SDS011;39787;53.174;5.798;2023-08-20T05:56:50;19.60;;;4.40;;
53871;SDS011;39787;53.174;5.798;2023-08-20T05:57:50;14.87;;;4.50;;
53871;SDS011;39787;53.174;5.798;2023-08-20T05:58:51;20.67;;;4.83;;
53871;SDS011;39787;53.174;5.798;2023-08-20T05:59:51;19.03;;;4.93;;
53871;SDS011;39787;53.174;5.798;2023-08-20T06:00:52;18.67;;;4.17;;
53871;SDS011;39787;53.174;5.798;2023-08-20T06:01:52;11.60;;;4.17;;
53871;SDS011;39787;53.174;5.798;2023-08-20T06:02:53;14.00;;;4.60;;
53871;SDS011;39787;53.174;5.798;2023-08-20T06:03:53;20.40;;;4.60;;
53871;SDS011;39787;53.174;5.798;2023-08-20T06:04:54;19.77;;;4.67;;
53871;SDS011;39787;53.174;5.798;2023-08-20T06:05:56;18.13;;;4.50;;
53871;SDS011;39787;53.174;5.798;2023-08-20T06:07:00;16.73;;;4.45;;
53871;SDS011;39787;53.174;5.798;2023-08-20T06:08:00;20.60;;;4.80;;
53871;SDS011;39787;53.174;5.798;2023-08-20T06:09:01;14.50;;;4.30;;
53871;SDS011;39787;53.174;5.798;2023-08-20T06:10:01;14.97;;;4.03;;
53871;SDS011;39787;53.174;5.798;2023-08-20T06:11:02;17.67;;;4.27;;